Prerov, Czech Republic
Current Conditions -  °F | °C
As of 4:00 PM on Thursday 30 Oct 2014 (Local Time) from LKMT Reporting Station
Clear Clear  
Wind Chill: 50°   Ceiling: Unl
Heat Index: 50°   Visibility: 6mi
Dew Point: 39°   Wind: 8mph
Humidity: 66%   Direction: 240°WSW
Pressure: 30.27"   Gusts: NA
Location:  49.46°N, 17.45°E
Report Text: LKMT 301400Z 24007KT CAVOK 10/04 Q1025 NOSIG
Loading
Personal Weather Stations






























Interactive Weather Map
Tropical Storm Tracking
New forecast layout! Learn more

10-Day Weather Forecast

Advertisements
Track Severe Weather on mobile